createdAt,value
2019-05-20T00:00:57.485Z,1.50
2019-05-20T00:03:26.375Z,1.40
2019-05-20T00:05:55.390Z,1.10
2019-05-20T00:08:24.593Z,1.10
2019-05-20T00:10:53.788Z,1.07
2019-05-20T00:13:22.962Z,1.10
2019-05-20T00:15:51.984Z,0.77
2019-05-20T00:18:20.744Z,0.90
2019-05-20T00:20:49.630Z,1.00
2019-05-20T00:23:18.731Z,0.90
2019-05-20T00:25:49.384Z,1.10
2019-05-20T00:28:18.638Z,0.80
2019-05-20T00:30:47.527Z,1.00
2019-05-20T00:33:16.541Z,0.90
2019-05-20T00:35:45.405Z,0.80
2019-05-20T00:38:14.241Z,0.93
2019-05-20T00:40:43.313Z,0.90
2019-05-20T00:43:12.235Z,0.70
2019-05-20T00:45:41.003Z,0.73
2019-05-20T00:48:10.111Z,0.80
2019-05-20T00:50:39.209Z,1.00
2019-05-20T00:53:08.140Z,0.70
2019-05-20T00:55:38.253Z,0.83
2019-05-20T00:58:06.899Z,0.70
2019-05-20T01:00:36.410Z,0.70
2019-05-20T01:03:05.663Z,0.67
2019-05-20T01:05:34.656Z,0.70
2019-05-20T01:08:03.744Z,0.63
2019-05-20T01:10:32.892Z,0.70
2019-05-20T01:13:01.739Z,0.70
2019-05-20T01:15:30.643Z,0.80
2019-05-20T01:17:59.767Z,0.80
2019-05-20T01:20:28.836Z,0.83
2019-05-20T01:22:57.745Z,0.67
2019-05-20T01:25:26.590Z,1.00
2019-05-20T01:27:55.735Z,0.77
2019-05-20T01:30:24.801Z,0.60
2019-05-20T01:32:54.085Z,0.80
2019-05-20T01:35:23.433Z,0.80
2019-05-20T01:37:52.528Z,0.97
2019-05-20T01:40:21.317Z,0.50
2019-05-20T01:42:50.160Z,0.80
2019-05-20T01:45:19.605Z,0.90
2019-05-20T01:47:48.702Z,0.60
2019-05-20T01:50:17.879Z,0.73
2019-05-20T01:52:47.153Z,0.70
2019-05-20T01:55:16.267Z,0.67
2019-05-20T01:57:45.159Z,0.70
2019-05-20T02:00:14.849Z,0.70
2019-05-20T02:02:44.039Z,0.67
2019-05-20T02:05:13.243Z,0.80
2019-05-20T02:07:42.341Z,0.80
2019-05-20T02:10:11.534Z,0.80
2019-05-20T02:12:40.675Z,0.70
2019-05-20T02:15:28.819Z,0.60
2019-05-20T02:17:57.763Z,0.70
2019-05-20T02:20:26.923Z,0.60
2019-05-20T02:23:13.666Z,0.60
2019-05-20T02:25:46.568Z,0.80
2019-05-20T02:28:14.389Z,0.50
2019-05-20T02:30:43.235Z,0.70
2019-05-20T02:33:11.996Z,0.40
2019-05-20T02:35:40.804Z,0.60
2019-05-20T02:38:10.002Z,0.60
2019-05-20T02:40:39.174Z,0.50
2019-05-20T02:43:09.789Z,0.40
2019-05-20T02:45:38.652Z,0.50
2019-05-20T02:48:07.894Z,0.53
2019-05-20T02:50:37.097Z,0.50
2019-05-20T02:53:06.598Z,0.53
2019-05-20T02:55:35.644Z,0.40
2019-05-20T02:58:04.750Z,0.60
2019-05-20T03:00:34.137Z,0.60
2019-05-20T03:03:03.239Z,0.60
2019-05-20T03:05:32.481Z,0.60
2019-05-20T03:08:01.743Z,0.70
2019-05-20T03:10:31.715Z,0.60
2019-05-20T03:13:00.541Z,0.77
2019-05-20T03:15:29.294Z,0.63
2019-05-20T03:17:58.593Z,0.53
2019-05-20T03:20:27.667Z,0.50
2019-05-20T03:22:56.916Z,0.50
2019-05-20T03:25:26.216Z,0.63
2019-05-20T03:27:55.262Z,0.53
2019-05-20T03:30:24.121Z,0.57
2019-05-20T03:32:52.915Z,0.50
2019-05-20T03:35:21.952Z,0.50
2019-05-20T03:37:51.115Z,0.50
2019-05-20T03:40:20.120Z,0.70
2019-05-20T03:42:48.964Z,0.60
2019-05-20T03:45:17.950Z,0.60
2019-05-20T03:47:47.205Z,0.50
2019-05-20T03:50:16.605Z,0.60
2019-05-20T03:52:45.929Z,0.60
2019-05-20T03:55:15.354Z,0.57
2019-05-20T03:57:44.304Z,0.50
2019-05-20T04:00:13.650Z,0.60
2019-05-20T04:02:42.967Z,0.50
2019-05-20T04:05:12.146Z,0.50
2019-05-20T04:07:41.089Z,0.50
2019-05-20T04:10:10.207Z,0.50
2019-05-20T04:12:39.444Z,0.60
2019-05-20T04:15:08.529Z,0.60
2019-05-20T04:17:37.364Z,0.60
2019-05-20T04:20:07.070Z,0.80
2019-05-20T04:22:36.296Z,0.60
2019-05-20T04:25:06.342Z,0.60
2019-05-20T04:27:35.183Z,0.70
2019-05-20T04:30:04.738Z,0.60
2019-05-20T04:32:33.596Z,0.70
2019-05-20T04:35:20.537Z,0.60
2019-05-20T04:37:33.349Z,0.60
2019-05-20T04:40:02.146Z,0.70
2019-05-20T04:42:30.948Z,0.60
2019-05-20T04:44:59.762Z,0.60
2019-05-20T04:47:28.471Z,0.50
2019-05-20T04:49:57.424Z,0.50
2019-05-20T04:52:26.109Z,0.50
2019-05-20T04:54:54.966Z,0.57
2019-05-20T04:57:23.645Z,0.43
2019-05-20T04:59:52.604Z,0.60
2019-05-20T05:02:21.186Z,0.57
2019-05-20T05:04:50.126Z,0.60
2019-05-20T05:07:19.039Z,0.50
2019-05-20T05:09:47.666Z,0.33
2019-05-20T05:12:16.700Z,0.70
2019-05-20T05:14:45.716Z,0.60
2019-05-20T05:17:14.302Z,0.43
2019-05-20T05:19:43.220Z,0.50
2019-05-20T05:22:12.138Z,0.40
2019-05-20T05:24:41.012Z,0.60
2019-05-20T05:27:10.031Z,0.53
2019-05-20T05:29:39.165Z,0.70
2019-05-20T05:32:08.067Z,0.60
2019-05-20T05:34:36.798Z,0.60
2019-05-20T05:37:05.491Z,0.77
2019-05-20T05:39:34.200Z,0.70
2019-05-20T05:42:03.070Z,0.50
2019-05-20T05:44:32.062Z,0.60
2019-05-20T05:47:00.848Z,0.80
2019-05-20T05:49:29.556Z,0.80
2019-05-20T05:51:58.579Z,0.70
2019-05-20T05:54:27.568Z,0.90
2019-05-20T05:56:56.813Z,0.77
2019-05-20T05:59:25.645Z,0.83
2019-05-20T06:01:57.523Z,1.13
2019-05-20T06:04:47.000Z,0.80
2019-05-20T06:07:21.126Z,1.07
2019-05-20T06:10:01.383Z,0.80
2019-05-20T06:12:36.366Z,1.07
2019-05-20T06:15:12.673Z,0.80
2019-05-20T06:17:41.421Z,0.70
2019-05-20T06:20:10.457Z,0.77
2019-05-20T06:22:39.321Z,0.90
2019-05-20T06:25:08.203Z,0.70
2019-05-20T06:27:37.231Z,0.70
2019-05-20T06:30:06.390Z,0.67
2019-05-20T06:32:35.246Z,0.80
2019-05-20T06:35:04.308Z,0.87
2019-05-20T06:37:35.501Z,0.60
2019-05-20T06:40:04.502Z,0.70
2019-05-20T06:42:33.385Z,0.80
2019-05-20T06:45:02.148Z,0.70
2019-05-20T06:47:31.083Z,0.60
2019-05-20T06:50:00.174Z,0.90
2019-05-20T06:52:35.919Z,0.60
2019-05-20T06:54:59.667Z,0.70
2019-05-20T06:57:28.639Z,0.80
2019-05-20T06:59:57.334Z,0.57
2019-05-20T07:02:26.413Z,0.60
2019-05-20T07:04:55.501Z,0.70
2019-05-20T07:07:24.289Z,0.80
2019-05-20T07:09:53.124Z,0.70
2019-05-20T07:12:22.242Z,0.80
2019-05-20T07:14:51.071Z,0.80
2019-05-20T07:17:19.814Z,0.83
2019-05-20T07:19:48.507Z,0.70
2019-05-20T07:22:17.781Z,0.77
2019-05-20T07:24:46.808Z,0.93
2019-05-20T07:27:15.805Z,0.80
2019-05-20T07:29:45.110Z,0.80
2019-05-20T07:32:17.014Z,0.80
2019-05-20T07:34:49.331Z,0.80
2019-05-20T07:37:18.695Z,0.77
2019-05-20T07:39:48.389Z,0.67
2019-05-20T07:42:18.076Z,0.90
2019-05-20T07:44:47.270Z,0.70
2019-05-20T07:47:16.674Z,0.60
2019-05-20T07:49:46.879Z,0.90
2019-05-20T07:52:16.451Z,0.80
2019-05-20T07:54:45.742Z,0.73
2019-05-20T07:57:15.844Z,0.80
2019-05-20T07:59:45.734Z,0.77
2019-05-20T08:02:15.372Z,1.00
2019-05-20T08:04:44.337Z,1.10
2019-05-20T08:07:27.523Z,1.00
2019-05-20T08:09:46.425Z,1.00
2019-05-20T08:12:15.564Z,0.97
2019-05-20T08:14:52.298Z,0.90
2019-05-20T08:17:21.049Z,0.83
2019-05-20T08:19:49.843Z,1.03
2019-05-20T08:22:18.533Z,0.77
2019-05-20T08:24:47.405Z,0.70
2019-05-20T08:27:16.696Z,0.90
2019-05-20T08:29:45.749Z,0.80
2019-05-20T08:32:14.871Z,0.90
2019-05-20T08:34:43.695Z,1.07
2019-05-20T08:37:18.693Z,0.87
2019-05-20T08:39:48.412Z,1.07
2019-05-20T08:42:18.154Z,0.63
2019-05-20T08:44:53.000Z,0.70
2019-05-20T08:47:27.402Z,1.00
2019-05-20T08:49:59.800Z,0.80
2019-05-20T08:52:35.382Z,0.90
2019-05-20T08:55:13.339Z,0.87
2019-05-20T08:57:45.401Z,1.10
2019-05-20T09:00:23.482Z,0.97
2019-05-20T09:02:54.988Z,1.10
2019-05-20T09:05:35.734Z,1.00
2019-05-20T09:08:07.565Z,1.10
2019-05-20T09:10:39.442Z,1.20
2019-05-20T09:13:07.932Z,1.10
2019-05-20T09:15:37.038Z,1.10
2019-05-20T09:18:05.663Z,0.90
2019-05-20T09:20:35.412Z,1.00
2019-05-20T09:23:07.719Z,1.00
2019-05-20T09:25:36.946Z,0.90
2019-05-20T09:28:05.932Z,0.90
2019-05-20T09:30:35.102Z,0.90
2019-05-20T09:33:04.397Z,1.00
2019-05-20T09:35:33.138Z,1.20
2019-05-20T09:38:17.218Z,1.13
2019-05-20T09:40:39.489Z,1.00
2019-05-20T09:43:08.380Z,1.30
2019-05-20T09:45:37.569Z,1.20
2019-05-20T09:48:07.100Z,1.00
2019-05-20T09:50:36.022Z,1.17
2019-05-20T09:53:07.196Z,1.00
2019-05-20T09:55:35.839Z,1.20
2019-05-20T09:58:05.308Z,0.90
2019-05-20T10:00:34.659Z,1.07
2019-05-20T10:03:03.580Z,1.00
2019-05-20T10:05:32.532Z,1.00
2019-05-20T10:08:01.256Z,1.20
2019-05-20T10:10:30.124Z,1.10
2019-05-20T10:12:58.864Z,1.00
2019-05-20T10:15:27.540Z,1.00
2019-05-20T10:17:56.325Z,1.10
2019-05-20T10:20:25.259Z,1.00
2019-05-20T10:22:53.911Z,0.90
2019-05-20T10:25:23.020Z,0.90
2019-05-20T10:27:51.750Z,1.10
2019-05-20T10:30:20.562Z,0.90
2019-05-20T10:32:49.631Z,0.80
2019-05-20T10:35:18.698Z,1.10
2019-05-20T10:37:47.400Z,1.10
2019-05-20T10:40:16.407Z,1.30
2019-05-20T10:42:45.694Z,1.20
2019-05-20T10:45:15.006Z,1.23
2019-05-20T10:47:44.093Z,1.30
2019-05-20T10:50:13.276Z,1.30
2019-05-20T10:52:42.082Z,1.57
2019-05-20T10:55:10.966Z,1.20
2019-05-20T10:57:39.765Z,1.43
2019-05-20T11:00:08.962Z,1.30
2019-05-20T11:02:37.800Z,1.10
2019-05-20T11:05:07.111Z,1.40
2019-05-20T11:07:35.770Z,1.50
2019-05-20T11:10:06.004Z,1.53
2019-05-20T11:12:34.803Z,1.30
2019-05-20T11:15:03.672Z,1.30
2019-05-20T11:17:32.286Z,1.80
2019-05-20T11:20:00.960Z,1.30
2019-05-20T11:22:30.146Z,1.63
2019-05-20T11:24:58.884Z,1.70
2019-05-20T11:27:27.623Z,1.67
2019-05-20T11:29:56.342Z,1.57
2019-05-20T12:42:14.775Z,1.70
2019-05-20T12:44:43.595Z,1.60
2019-05-20T12:47:12.267Z,1.80
2019-05-20T12:49:40.990Z,1.87
2019-05-20T12:52:09.858Z,1.77
2019-05-20T12:54:38.595Z,1.23
2019-05-20T12:57:07.464Z,1.50
2019-05-20T12:59:36.116Z,1.30
2019-05-20T13:02:04.916Z,1.40
2019-05-20T14:04:25.343Z,1.90
2019-05-20T14:06:54.169Z,1.70
2019-05-20T14:09:22.783Z,1.50
2019-05-20T14:11:51.800Z,1.70
2019-05-20T14:14:20.476Z,1.70
2019-05-20T14:16:49.283Z,1.70
2019-05-20T14:19:20.325Z,1.77
2019-05-20T14:21:48.651Z,1.63
2019-05-20T14:24:17.290Z,2.00
2019-05-20T14:45:58.052Z,1.70
2019-05-20T14:48:26.879Z,1.70
2019-05-20T14:50:55.528Z,1.40
2019-05-20T14:53:24.664Z,1.40
2019-05-20T14:55:53.252Z,1.40
2019-05-20T14:58:22.238Z,1.40
2019-05-20T15:00:51.381Z,1.40
2019-05-20T15:03:20.523Z,1.50
2019-05-20T15:05:49.880Z,1.40
2019-05-20T15:08:19.025Z,1.63
2019-05-20T15:10:47.632Z,1.40
2019-05-20T15:13:16.495Z,1.47
2019-05-20T15:15:48.226Z,1.70
2019-05-20T15:18:15.814Z,1.40
2019-05-20T15:20:44.407Z,1.33
2019-05-20T15:23:13.310Z,1.60
2019-05-20T15:25:42.048Z,1.60
2019-05-20T15:28:10.777Z,1.50
2019-05-20T15:30:39.530Z,1.60
2019-05-20T15:33:08.503Z,1.90
2019-05-20T15:35:37.771Z,2.20
2019-05-20T15:38:06.434Z,1.80
2019-05-20T15:40:35.118Z,2.00
2019-05-20T15:43:04.154Z,2.00
2019-05-20T15:45:32.972Z,2.10
2019-05-20T15:48:01.786Z,3.60
2019-05-20T15:50:30.382Z,2.37
2019-05-20T15:52:59.478Z,2.30
2019-05-20T15:55:28.480Z,2.00
2019-05-20T15:57:57.206Z,2.33
2019-05-20T16:00:25.949Z,2.10
2019-05-20T16:02:55.233Z,2.00
2019-05-20T16:05:24.225Z,2.30
2019-05-20T16:07:53.030Z,2.30
2019-05-20T16:10:21.916Z,1.97
2019-05-20T16:12:50.888Z,1.80
2019-05-20T16:15:19.705Z,2.03
2019-05-20T16:17:48.846Z,2.00
2019-05-20T16:20:17.742Z,2.03
2019-05-20T16:22:46.746Z,1.80
2019-05-20T16:25:15.370Z,2.10
2019-05-20T16:27:44.301Z,2.10
2019-05-20T16:30:13.440Z,2.10
2019-05-20T16:32:42.251Z,2.03
2019-05-20T16:35:11.337Z,2.10
2019-05-20T16:37:40.292Z,2.30
2019-05-20T16:40:09.676Z,2.10
2019-05-20T16:42:38.835Z,2.07
2019-05-20T16:45:11.584Z,2.30
2019-05-20T16:47:38.539Z,2.00
2019-05-20T16:50:08.832Z,2.03
2019-05-20T16:52:38.127Z,2.30
2019-05-20T16:55:07.147Z,2.17
2019-05-20T16:57:36.058Z,2.60
2019-05-20T17:00:14.635Z,2.67
2019-05-20T17:02:36.909Z,3.00
2019-05-20T17:05:05.864Z,2.53
2019-05-20T17:07:34.867Z,2.90
2019-05-20T17:10:03.995Z,2.63
2019-05-20T17:12:32.835Z,2.67
2019-05-20T17:15:01.661Z,2.70
2019-05-20T17:17:30.567Z,3.10
2019-05-20T17:19:59.239Z,2.67
2019-05-20T17:22:28.221Z,3.17
2019-05-20T17:24:59.529Z,3.20
2019-05-20T17:27:28.560Z,3.23
2019-05-20T17:29:57.355Z,3.33
2019-05-20T17:32:26.115Z,3.00
2019-05-20T17:34:54.721Z,3.20
2019-05-20T17:37:23.639Z,3.47
2019-05-20T17:39:52.335Z,3.77
2019-05-20T17:42:21.043Z,3.80
2019-05-20T17:44:49.684Z,3.80
2019-05-20T17:47:18.411Z,3.57
2019-05-20T17:49:47.210Z,3.50
2019-05-20T17:52:15.997Z,3.50
2019-05-20T17:54:44.711Z,3.10
2019-05-20T17:57:13.362Z,3.20
2019-05-20T17:59:42.529Z,3.37
2019-05-20T18:02:12.195Z,2.97
2019-05-20T18:04:41.067Z,3.23
2019-05-20T18:07:09.732Z,3.27
2019-05-20T18:09:41.511Z,3.57
2019-05-20T18:12:10.159Z,3.63
2019-05-20T18:14:38.943Z,2.87
2019-05-20T18:17:07.705Z,3.50
2019-05-20T18:19:36.457Z,3.30
2019-05-20T18:22:05.135Z,3.77
2019-05-20T18:24:33.865Z,3.30
2019-05-20T18:27:02.667Z,3.13
2019-05-20T18:29:31.283Z,3.60
2019-05-20T18:31:59.913Z,3.57
2019-05-20T18:34:28.814Z,3.10
2019-05-20T18:36:57.848Z,2.97
2019-05-20T18:39:26.582Z,3.40
2019-05-20T18:41:55.572Z,3.77
2019-05-20T18:44:24.482Z,4.10
2019-05-20T18:46:53.235Z,3.50
2019-05-20T18:49:22.126Z,3.37
2019-05-20T18:51:50.843Z,3.40
2019-05-20T18:54:19.592Z,3.50
2019-05-20T18:56:48.381Z,3.43
2019-05-20T18:59:17.011Z,4.20
2019-05-20T19:01:56.024Z,3.73
2019-05-20T19:04:16.088Z,3.30
2019-05-20T19:06:45.075Z,3.53
2019-05-20T19:09:14.036Z,3.40
2019-05-20T19:11:43.007Z,3.63
2019-05-20T19:14:11.649Z,3.33
2019-05-20T19:16:40.250Z,3.73
2019-05-20T19:19:08.912Z,3.40
2019-05-20T19:21:37.642Z,3.80
2019-05-20T19:24:06.295Z,3.77
2019-05-20T19:26:35.143Z,3.90
2019-05-20T19:29:04.144Z,3.70
2019-05-20T19:31:32.965Z,3.77
2019-05-20T19:34:01.747Z,3.90
2019-05-20T19:36:30.817Z,3.80
2019-05-20T19:38:59.670Z,3.97
2019-05-20T19:41:28.429Z,4.23
2019-05-20T19:43:57.138Z,4.00
2019-05-20T19:46:25.934Z,3.90
2019-05-20T19:48:54.773Z,4.60
2019-05-20T19:51:23.733Z,4.57
2019-05-20T19:53:52.321Z,4.60
2019-05-20T19:56:21.444Z,4.17
2019-05-20T19:58:50.232Z,4.90
2019-05-20T20:01:18.844Z,4.70
2019-05-20T20:03:47.588Z,4.60
2019-05-20T20:06:16.343Z,4.40
2019-05-20T20:08:45.268Z,4.50
2019-05-20T20:11:14.192Z,4.27
2019-05-20T20:13:43.147Z,4.30
2019-05-20T20:16:17.371Z,4.87
2019-05-20T20:18:42.424Z,4.40
2019-05-20T20:21:11.265Z,4.70
2019-05-20T20:23:39.970Z,4.50
2019-05-20T20:26:08.964Z,4.20
2019-05-20T20:28:37.724Z,4.60
2019-05-20T20:31:06.518Z,4.57
2019-05-20T20:33:35.206Z,5.13
2019-05-20T20:36:04.039Z,4.67
2019-05-20T20:38:32.756Z,4.77
2019-05-20T20:41:01.683Z,4.87
2019-05-20T20:43:32.262Z,4.67
2019-05-20T20:46:01.269Z,5.30
2019-05-20T20:48:30.286Z,4.80
2019-05-20T20:50:59.224Z,4.93
2019-05-20T20:53:27.940Z,5.20
2019-05-20T20:55:56.892Z,5.40
2019-05-20T20:58:25.554Z,5.33
2019-05-20T21:00:54.284Z,5.57
2019-05-20T21:03:23.022Z,5.30
2019-05-20T21:05:52.076Z,5.77
2019-05-20T21:08:21.007Z,5.53
2019-05-20T21:10:49.783Z,5.80
2019-05-20T21:13:18.632Z,5.40
2019-05-20T21:15:47.480Z,5.57
2019-05-20T21:18:16.067Z,5.93
2019-05-20T21:20:44.811Z,5.63
2019-05-20T21:23:13.536Z,6.17
2019-05-20T21:25:42.175Z,6.53
2019-05-20T21:28:10.794Z,5.77
2019-05-20T21:30:39.575Z,6.30
2019-05-20T21:33:09.729Z,6.47
2019-05-20T21:35:38.654Z,7.20
2019-05-20T21:38:07.672Z,6.60
2019-05-20T21:40:36.256Z,6.90
2019-05-20T21:43:05.222Z,7.00
2019-05-20T21:45:33.896Z,7.60
2019-05-20T21:48:02.573Z,7.57
2019-05-20T21:50:31.301Z,7.43
2019-05-20T21:53:00.102Z,7.63
2019-05-20T21:55:28.800Z,8.53
2019-05-20T21:57:57.764Z,8.13
2019-05-20T22:00:32.983Z,8.20
2019-05-20T22:03:01.903Z,8.47
2019-05-20T22:05:30.631Z,8.40
2019-05-20T22:07:59.409Z,8.53
2019-05-20T22:10:28.147Z,8.70
2019-05-20T22:12:56.755Z,9.20
2019-05-20T22:15:27.079Z,8.57
2019-05-20T22:17:55.821Z,8.73
2019-05-20T22:20:24.497Z,9.00
2019-05-20T22:23:10.834Z,9.00
2019-05-20T22:25:39.551Z,9.63
2019-05-20T22:28:08.194Z,10.00
2019-05-20T22:30:36.952Z,10.13
2019-05-20T22:33:05.596Z,9.83
2019-05-20T22:35:34.289Z,9.07
2019-05-20T22:38:02.970Z,9.83
2019-05-20T22:40:31.866Z,9.63
2019-05-20T22:43:00.489Z,9.30
2019-05-20T22:45:29.347Z,9.47
2019-05-20T22:47:58.108Z,9.37
2019-05-20T22:50:26.890Z,10.57
2019-05-20T22:52:55.925Z,9.37
2019-05-20T22:55:24.739Z,9.70
2019-05-20T22:57:53.563Z,9.37
2019-05-20T23:00:22.341Z,9.93
2019-05-20T23:02:51.065Z,10.57
2019-05-20T23:05:20.073Z,10.57
2019-05-20T23:07:48.833Z,10.03
2019-05-20T23:10:17.875Z,10.60
2019-05-20T23:12:46.891Z,9.83
2019-05-20T23:15:15.997Z,10.63
2019-05-20T23:17:44.827Z,10.73
2019-05-20T23:20:13.585Z,10.97
2019-05-20T23:22:42.263Z,9.87
2019-05-20T23:25:11.581Z,10.37
2019-05-20T23:27:40.181Z,10.97
2019-05-20T23:30:09.556Z,11.03
2019-05-20T23:32:38.662Z,10.07
2019-05-20T23:35:07.911Z,10.40
2019-05-20T23:37:36.602Z,11.17
2019-05-20T23:40:05.620Z,10.87
2019-05-20T23:42:34.715Z,10.80
2019-05-20T23:45:03.875Z,10.50
2019-05-20T23:47:32.677Z,10.93
2019-05-20T23:50:01.418Z,10.27
2019-05-20T23:52:30.338Z,9.97
2019-05-20T23:54:58.973Z,9.80
2019-05-20T23:57:30.145Z,10.10
2019-05-20T23:59:58.759Z,10.47
